Portada
METAR-TAF:

METAR-TAF

Aeropuertos :

Gibraltar, Gibraltar

Aeropuerto de Gibraltar

latitud: 36-09N, longitud: 005-21W, altitud: 5 m

Observación

El informe se hizo hace 1 hora y 0 minutos, a las 18:50 UTC
Viento 6 kt del este-sureste
Temperatura 17°C
Humedad 55%
Presión 1026 hPa
Visibilidad 10 km o más
Escasas nubes a una altura de 3500 ft

METAR: LXGB 281850Z 11006KT 9999 FEW035 17/08 Q1026

Hora: 21:50 (19:50 UTC)

Pronóstico

El informe se hizo hace 3 horas y 44 minutos, a las 16:06 UTC
Pronóstico válido del 28 a las 18 UTC al 28 a las 22 UTC
Viento 7 kt del este-noreste
Visibilidad 10 km o más
Escasas nubes a una altura de 4000 ft

TAF: LXGB 281606Z 2818/2822 07007KT 9999 FEW040

Observaciones y pronósticos meteorológicos de más de 4000 aeropuertos (mensajes METAR y TAF).

Los puntos amarillos y rojos representan las estaciones disponibles.

Ponga el ratón en el punto deseado para ver el nombre de la estación.

Haga clic para ver las observaciones y los pronósticos meteorológicos.

Para cambiar el mapa : haga clic en los botones verdes con una cruz de color negro para hacer un zoom, en el botón verde con un guión para alejar o en las flechas verdes para mapas adyacentes.


METAR-TAF: